Time;durP1;ratioP1;P1;durP2;ratioP2;P2;SDS_P1;SDS_P2;PMS_P1;PMS_P2;Temp;Humidity;BMP_temperature;BMP_pressure;BME280_temperature;BME280_humidity;BME280_pressure;Samples;Min_cycle;Max_cycle;Signal;HPM_P1;HPM_P2
2022/08/22 00:00:57;;;;;;;3.70;2.72;;;;;;;17.85;43.83;95525.25;5027480;28;20539;-81
2022/08/22 00:03:31;;;;;;;4.40;2.42;;;;;;;17.85;43.85;95525.25;5021791;28;20190;-81
2022/08/22 00:06:15;;;;;;;5.40;2.67;;;;;;;17.85;44.06;95526.06;5026716;28;20200;-80
2022/08/22 00:08:48;;;;;;;5.13;2.92;;;;;;;17.82;44.12;95522.00;5044960;28;20185;-82
2022/08/22 00:11:24;;;;;;;4.15;2.40;;;;;;;17.81;44.05;95523.00;5023373;28;20212;-82
2022/08/22 00:13:59;;;;;;;5.75;2.85;;;;;;;17.81;43.85;95527.44;5043526;28;20193;-82
2022/08/22 00:16:45;;;;;;;4.75;2.60;;;;;;;17.78;43.97;95523.38;5030667;28;20299;-80
2022/08/22 00:19:36;;;;;;;4.03;2.53;;;;;;;17.76;44.04;95519.34;5023841;28;20184;-82
2022/08/22 00:22:16;;;;;;;6.07;2.88;;;;;;;17.73;44.14;95522.34;5041912;28;20189;-82
2022/08/22 00:24:48;;;;;;;3.83;2.90;;;;;;;17.76;43.89;95520.16;5040484;28;20198;-82
2022/08/22 00:27:22;;;;;;;6.80;2.83;;;;;;;17.79;43.82;95516.31;5019080;28;20173;-81
2022/08/22 00:29:54;;;;;;;5.45;2.75;;;;;;;17.80;43.50;95520.56;5029487;28;20177;-82
2022/08/22 00:32:26;;;;;;;5.18;2.67;;;;;;;17.79;43.70;95514.50;5027853;28;20649;-80
2022/08/22 00:35:07;;;;;;;5.30;3.03;;;;;;;17.77;43.63;95511.28;5042576;28;20205;-82
2022/08/22 00:37:38;;;;;;;5.47;3.10;;;;;;;17.76;43.42;95506.22;5023314;28;20190;-82
2022/08/22 00:40:28;;;;;;;4.00;2.55;;;;;;;17.79;43.05;95504.00;5040183;28;20211;-81
2022/08/22 00:43:18;;;;;;;4.78;2.58;;;;;;;17.80;42.88;95510.06;5025727;28;20178;-81
2022/08/22 00:46:11;;;;;;;3.90;2.72;;;;;;;17.77;42.89;95521.78;5043263;28;20203;-80
2022/08/22 00:48:55;;;;;;;4.53;3.05;;;;;;;17.76;42.98;95517.53;5063384;28;20176;-81
2022/08/22 00:51:42;;;;;;;5.10;2.58;;;;;;;17.73;43.58;95515.28;5045433;28;20187;-81
2022/08/22 00:54:28;;;;;;;3.95;2.70;;;;;;;17.77;43.34;95508.63;5047684;28;20241;-81
2022/08/22 00:57:24;;;;;;;4.22;2.63;;;;;;;17.76;43.66;95506.22;5043054;28;20193;-81
2022/08/22 01:00:11;;;;;;;4.10;2.60;;;;;;;17.75;43.95;95505.38;5008391;28;20197;-80
2022/08/22 01:03:06;;;;;;;4.15;2.67;;;;;;;17.73;43.60;95501.31;5029066;28;20177;-82
2022/08/22 01:06:04;;;;;;;4.15;2.47;;;;;;;17.70;43.90;95507.78;5035181;28;20228;-81
2022/08/22 01:09:00;;;;;;;5.22;3.30;;;;;;;17.70;44.20;95506.97;5062092;28;20288;-81
2022/08/22 01:11:37;;;;;;;5.47;2.58;;;;;;;17.66;44.47;95498.63;5066409;28;20177;-81
2022/08/22 01:14:38;;;;;;;4.30;3.05;;;;;;;17.67;44.53;95497.66;5065744;28;20238;-81
2022/08/22 01:17:17;;;;;;;4.70;2.83;;;;;;;17.68;44.28;95501.88;5002755;28;20684;-81
2022/08/22 01:20:28;;;;;;;5.47;3.17;;;;;;;17.72;44.16;95500.50;5067733;28;20211;-81
2022/08/22 01:23:27;;;;;;;4.05;3.00;;;;;;;17.71;44.52;95498.09;5042985;28;20197;-81
2022/08/22 01:26:30;;;;;;;3.30;2.55;;;;;;;17.69;44.47;95498.25;5043607;28;20206;-81
2022/08/22 01:29:37;;;;;;;5.53;2.67;;;;;;;17.68;44.75;95493.19;5026169;28;20178;-80
2022/08/22 01:32:27;;;;;;;3.80;2.75;;;;;;;17.67;44.67;95497.66;5048234;28;20181;-82
2022/08/22 01:35:23;;;;;;;2.70;2.28;;;;;;;17.67;44.27;95499.44;5059585;28;20209;-82
2022/08/22 01:38:18;;;;;;;7.72;3.25;;;;;;;17.62;44.85;95493.97;5014564;28;20598;-82
2022/08/22 01:41:16;;;;;;;5.65;3.42;;;;;;;17.64;45.41;95491.94;5047962;28;20192;-81
2022/08/22 01:44:00;;;;;;;4.63;3.10;;;;;;;17.61;45.38;95493.16;5026456;28;20213;-80
2022/08/22 01:46:46;;;;;;;4.28;2.90;;;;;;;17.57;46.23;95497.16;5027188;28;20210;-80
2022/08/22 01:49:36;;;;;;;3.60;3.10;;;;;;;17.54;46.10;95497.53;5044682;28;20174;-81
2022/08/22 01:52:18;;;;;;;3.28;2.90;;;;;;;17.52;45.93;95491.69;5047687;28;20173;-81
2022/08/22 01:55:01;;;;;;;4.93;3.17;;;;;;;17.52;46.57;95496.94;5028941;28;20215;-81
2022/08/22 01:57:26;;;;;;;5.82;2.88;;;;;;;17.48;46.38;95493.03;5044108;28;20200;-81
2022/08/22 01:59:54;;;;;;;4.32;3.55;;;;;;;17.46;46.59;95492.44;5024683;28;20289;-80
2022/08/22 02:02:49;;;;;;;5.40;2.75;;;;;;;17.43;46.92;95495.44;5041607;28;20182;-81
2022/08/22 02:05:25;;;;;;;5.40;3.17;;;;;;;17.38;46.71;95493.38;5043437;28;20201;-80
2022/08/22 02:08:18;;;;;;;3.97;3.08;;;;;;;17.34;46.93;95491.34;5040761;28;20691;-81
2022/08/22 02:10:55;;;;;;;5.50;3.30;;;;;;;17.30;46.96;95482.22;5044110;28;20622;-81
2022/08/22 02:13:29;;;;;;;5.70;3.38;;;;;;;17.30;46.82;95484.84;5026151;28;20224;-81
2022/08/22 02:16:10;;;;;;;8.18;3.63;;;;;;;17.28;47.12;95479.78;5061737;28;20754;-81
2022/08/22 02:18:56;;;;;;;5.20;3.17;;;;;;;17.26;46.59;95474.72;5028223;28;20271;-80
2022/08/22 02:21:28;;;;;;;3.90;3.13;;;;;;;17.26;46.64;95476.53;5045938;28;20177;-81
2022/08/22 02:23:59;;;;;;;6.20;3.67;;;;;;;17.24;47.02;95474.13;5025298;28;20182;-81
2022/08/22 02:26:39;;;;;;;4.13;2.95;;;;;;;17.24;47.51;95478.56;5031654;28;20250;-80
2022/08/22 02:29:18;;;;;;;4.45;3.30;;;;;;;17.18;47.27;95472.25;5068107;28;20243;-82
2022/08/22 02:31:48;;;;;;;3.88;2.75;;;;;;;17.19;47.49;95478.31;5052228;28;20177;-80
2022/08/22 02:34:23;;;;;;;5.65;3.20;;;;;;;17.14;47.56;95481.50;5020646;28;20202;-81
2022/08/22 02:37:04;;;;;;;4.88;3.33;;;;;;;17.11;47.99;95479.25;5027995;28;20196;-80
2022/08/22 02:39:51;;;;;;;4.80;2.95;;;;;;;17.08;48.45;95482.25;5020337;28;20178;-80
2022/08/22 02:42:42;;;;;;;5.97;3.53;;;;;;;17.04;49.06;95473.13;5039666;28;20675;-81
2022/08/22 02:45:37;;;;;;;4.38;3.08;;;;;;;16.98;48.48;95473.91;5025758;28;20608;-81
2022/08/22 02:48:14;;;;;;;5.32;3.20;;;;;;;16.91;48.79;95473.03;5043870;28;20192;-81
2022/08/22 02:50:46;;;;;;;4.45;3.40;;;;;;;16.83;49.21;95468.72;5043393;28;20193;-80
2022/08/22 02:53:29;;;;;;;5.68;3.00;;;;;;;16.79;49.28;95470.09;5028669;28;20556;-80
2022/08/22 02:55:59;;;;;;;4.57;2.97;;;;;;;16.73;49.81;95464.78;5024326;28;20218;-81
2022/08/22 02:58:41;;;;;;;5.53;3.58;;;;;;;16.67;49.56;95467.13;5027128;28;20189;-81
2022/08/22 03:01:24;;;;;;;5.07;3.30;;;;;;;16.62;49.60;95466.09;5044407;28;20177;-80
2022/08/22 03:03:50;;;;;;;4.35;3.00;;;;;;;16.56;49.85;95462.38;5043093;28;20184;-80
2022/08/22 03:06:16;;;;;;;6.25;3.47;;;;;;;16.52;50.09;95468.16;5041637;28;20209;-80
2022/08/22 03:09:19;;;;;;;5.15;2.92;;;;;;;16.49;50.00;95464.13;5063297;28;20196;-80
2022/08/22 03:11:48;;;;;;;3.90;3.17;;;;;;;16.46;50.07;95461.06;5044912;28;20220;-80
2022/08/22 03:14:31;;;;;;;3.83;3.00;;;;;;;16.45;50.42;95462.88;5036222;28;20208;-81
2022/08/22 03:16:59;;;;;;;6.07;3.72;;;;;;;16.40;50.30;95463.44;5023446;28;20228;-81
2022/08/22 03:19:43;;;;;;;5.45;2.97;;;;;;;16.37;50.45;95457.75;5043443;28;20178;-80
2022/08/22 03:22:19;;;;;;;5.95;3.38;;;;;;;16.34;50.77;95463.34;5043959;28;20192;-81
2022/08/22 03:24:55;;;;;;;6.35;3.30;;;;;;;16.31;50.59;95453.25;5040651;28;20205;-80
2022/08/22 03:27:27;;;;;;;6.80;3.70;;;;;;;16.28;50.37;95457.06;5042737;28;20200;-80
2022/08/22 03:30:01;;;;;;;6.15;2.80;;;;;;;16.27;50.36;95452.81;5043803;28;20182;-81
2022/08/22 03:32:47;;;;;;;3.42;3.03;;;;;;;16.24;50.62;95463.66;5038038;28;20205;-80
2022/08/22 03:35:23;;;;;;;5.63;3.22;;;;;;;16.21;51.14;95450.91;5057275;28;20232;-80
2022/08/22 03:37:53;;;;;;;3.80;2.90;;;;;;;16.17;50.71;95449.69;5026150;28;20192;-80
2022/08/22 03:40:18;;;;;;;9.02;3.38;;;;;;;16.14;50.77;95457.88;5044229;28;20310;-81
2022/08/22 03:43:02;;;;;;;5.60;3.75;;;;;;;16.12;51.28;95457.28;5044853;28;20283;-81
2022/08/22 03:46:06;;;;;;;4.43;2.95;;;;;;;16.08;51.24;95448.97;5024172;28;20704;-81
2022/08/22 03:48:50;;;;;;;3.67;2.88;;;;;;;16.06;51.40;95458.81;5039722;28;20650;-81
2022/08/22 03:51:21;;;;;;;7.30;3.47;;;;;;;16.02;51.47;95457.56;5058576;28;20209;-81
2022/08/22 03:54:02;;;;;;;6.05;3.75;;;;;;;15.99;51.48;95454.47;5042137;28;20194;-81
2022/08/22 03:56:52;;;;;;;4.95;3.35;;;;;;;15.94;51.17;95464.69;5042838;28;20229;-81
2022/08/22 03:59:49;;;;;;;3.65;2.80;;;;;;;15.92;51.20;95464.09;5044373;28;20212;-81
2022/08/22 04:02:31;;;;;;;4.47;2.95;;;;;;;15.89;51.52;95460.00;5039682;28;20230;-81
2022/08/22 04:05:35;;;;;;;6.78;3.58;;;;;;;15.86;51.48;95465.59;5039275;28;20336;-81
2022/08/22 04:08:27;;;;;;;4.63;3.10;;;;;;;15.82;51.73;95469.59;4974958;28;20280;-80
2022/08/22 04:11:24;;;;;;;5.57;3.47;;;;;;;15.79;51.82;95464.72;5039919;28;20673;-80
2022/08/22 04:13:55;;;;;;;5.13;2.97;;;;;;;15.78;51.84;95463.09;5058489;28;20189;-81
2022/08/22 04:16:55;;;;;;;9.00;3.58;;;;;;;15.79;51.59;95476.00;5033607;28;20216;-81
2022/08/22 04:19:47;;;;;;;4.68;3.28;;;;;;;15.82;51.48;95473.03;5067050;28;20181;-82
2022/08/22 04:22:29;;;;;;;4.18;2.90;;;;;;;15.81;51.64;95471.41;5067391;28;20227;-80
2022/08/22 04:25:11;;;;;;;3.92;2.97;;;;;;;15.84;51.99;95478.09;5054572;28;20185;-81
2022/08/22 04:27:47;;;;;;;6.53;3.63;;;;;;;15.83;51.65;95474.66;5052100;28;20209;-80
2022/08/22 04:30:37;;;;;;;7.65;3.55;;;;;;;15.87;51.75;95477.72;5062250;28;20207;-80
2022/08/22 04:33:30;;;;;;;3.78;2.95;;;;;;;15.89;51.58;95470.47;5063761;28;20154;-81
2022/08/22 04:36:16;;;;;;;4.82;2.90;;;;;;;15.88;51.68;95479.31;5066724;28;20225;-80
2022/08/22 04:38:55;;;;;;;5.10;3.30;;;;;;;15.89;51.78;95475.72;5043552;28;20188;-80
2022/08/22 04:41:46;;;;;;;5.40;3.60;;;;;;;15.94;51.62;95472.56;5043611;28;20247;-82
2022/08/22 04:44:16;;;;;;;4.55;2.72;;;;;;;15.99;51.64;95468.41;5045505;28;20177;-81
2022/08/22 04:47:05;;;;;;;4.35;3.38;;;;;;;16.09;51.35;95471.56;5027511;28;20185;-82
2022/08/22 04:49:42;;;;;;;4.25;2.90;;;;;;;16.15;51.55;95476.03;5043100;28;20664;-82
2022/08/22 04:52:34;;;;;;;6.45;3.67;;;;;;;16.19;51.66;95476.50;5009419;28;20196;-82
2022/08/22 04:55:18;;;;;;;4.97;3.35;;;;;;;16.22;51.52;95478.75;5060365;28;20216;-80
2022/08/22 04:57:52;;;;;;;5.05;3.10;;;;;;;16.30;51.16;95478.63;5074542;28;20189;-79
2022/08/22 05:00:18;;;;;;;5.68;3.88;;;;;;;16.46;51.06;95482.84;5052569;28;20260;-83
2022/08/22 05:02:50;;;;;;;9.45;3.90;;;;;;;17.49;48.73;95485.00;5028943;28;20616;-81
2022/08/22 05:05:34;;;;;;;4.88;3.63;;;;;;;19.13;44.75;95492.94;5026107;28;20197;-81
2022/08/22 05:08:02;;;;;;;7.47;3.85;;;;;;;19.98;42.23;95484.16;5028272;28;20178;-82
2022/08/22 05:10:34;;;;;;;6.68;3.05;;;;;;;20.15;41.06;95492.41;5044473;28;20184;-82
2022/08/22 05:13:14;;;;;;;6.72;3.50;;;;;;;19.93;41.85;95496.31;5048291;28;20180;-83
2022/08/22 05:15:42;;;;;;;4.50;3.58;;;;;;;19.64;42.32;95497.59;5040927;28;20206;-81
2022/08/22 05:18:15;;;;;;;5.70;3.60;;;;;;;19.20;42.97;95485.84;5028573;28;20190;-79
2022/08/22 05:20:44;;;;;;;5.25;3.72;;;;;;;18.91;44.27;95492.31;5024628;28;20186;-78
2022/08/22 05:23:15;;;;;;;5.78;3.55;;;;;;;18.64;45.33;95491.41;5046304;28;20213;-79
2022/08/22 05:25:43;;;;;;;5.70;3.25;;;;;;;18.54;45.41;95489.16;5038551;28;20270;-79
2022/08/22 05:28:30;;;;;;;7.93;3.30;;;;;;;18.37;46.11;95490.50;5041340;28;20882;-79
2022/08/22 05:30:55;;;;;;;5.32;3.28;;;;;;;18.33;45.97;95492.72;5041147;28;20196;-79
2022/08/22 05:33:33;;;;;;;5.95;3.17;;;;;;;18.29;46.02;95494.16;5022166;28;20553;-79
2022/08/22 05:36:09;;;;;;;4.80;3.63;;;;;;;18.31;46.42;95494.75;5040885;28;20771;-78
2022/08/22 05:38:39;;;;;;;4.35;2.90;;;;;;;18.30;46.66;95493.13;5019357;28;20212;-78
2022/08/22 05:41:08;;;;;;;5.75;3.88;;;;;;;18.31;46.97;95496.56;5028174;28;20189;-79
2022/08/22 05:43:37;;;;;;;4.47;3.42;;;;;;;18.35;46.52;95490.72;5032122;28;20257;-80
2022/08/22 05:46:06;;;;;;;6.47;3.92;;;;;;;18.38;47.10;95497.41;5040419;28;20201;-78
2022/08/22 05:48:44;;;;;;;4.70;3.40;;;;;;;18.48;47.12;95494.41;5043916;28;20629;-79
2022/08/22 05:51:24;;;;;;;5.82;3.85;;;;;;;18.59;47.50;95485.94;5045045;28;20235;-78
2022/08/22 05:53:57;;;;;;;5.20;3.63;;;;;;;18.70;47.45;95487.19;5043001;28;20201;-79
2022/08/22 05:56:37;;;;;;;6.45;3.40;;;;;;;18.81;46.91;95492.69;5047548;28;20221;-79
2022/08/22 05:59:15;;;;;;;6.78;3.72;;;;;;;18.91;47.22;95489.69;5053473;28;20188;-78
2022/08/22 06:02:05;;;;;;;7.00;3.83;;;;;;;19.18;46.28;95496.59;5030741;28;20185;-79
2022/08/22 06:04:59;;;;;;;5.88;3.47;;;;;;;19.36;44.94;95492.53;5049026;28;20173;-79
2022/08/22 06:07:27;;;;;;;4.90;3.30;;;;;;;19.49;43.38;95485.44;5048432;28;20174;-78
2022/08/22 06:10:13;;;;;;;4.55;2.95;;;;;;;19.71;43.48;95490.50;5029532;28;20166;-79
2022/08/22 06:12:43;;;;;;;5.85;3.28;;;;;;;19.82;43.31;95497.78;5046632;28;20231;-78
2022/08/22 06:15:19;;;;;;;5.70;3.20;;;;;;;19.93;43.37;95498.97;5034490;28;20201;-79
2022/08/22 06:17:50;;;;;;;5.68;3.25;;;;;;;20.00;42.41;95497.94;5048284;28;20189;-78
2022/08/22 06:20:19;;;;;;;5.15;3.28;;;;;;;20.02;41.79;95497.72;5043112;28;20173;-78
2022/08/22 06:22:57;;;;;;;6.65;3.45;;;;;;;20.04;42.64;95503.59;5047838;28;20669;-79
2022/08/22 06:25:26;;;;;;;4.25;3.10;;;;;;;20.19;41.83;95500.72;5025411;28;20738;-79
2022/08/22 06:27:52;;;;;;;4.30;3.40;;;;;;;20.32;41.71;95504.13;5046813;28;20174;-79
2022/08/22 06:30:18;;;;;;;5.32;3.58;;;;;;;20.36;41.88;95510.59;5047929;28;20643;-79
2022/08/22 06:32:48;;;;;;;4.95;3.13;;;;;;;20.42;41.63;95510.78;5032412;28;20218;-79
2022/08/22 06:35:24;;;;;;;5.43;3.60;;;;;;;20.49;41.36;95516.84;5033090;28;20243;-79
2022/08/22 06:37:51;;;;;;;5.00;3.42;;;;;;;20.55;40.74;95518.66;5030153;28;20188;-78
2022/08/22 06:40:17;;;;;;;6.05;3.15;;;;;;;20.59;40.91;95517.22;5066809;28;20267;-78
2022/08/22 06:42:49;;;;;;;6.50;3.38;;;;;;;20.67;40.53;95521.41;5032568;28;20248;-79
2022/08/22 06:45:27;;;;;;;4.70;3.17;;;;;;;20.80;40.22;95518.72;5046351;28;20209;-79
2022/08/22 06:48:04;;;;;;;3.80;3.17;;;;;;;20.96;39.99;95522.69;5032878;28;20264;-79
2022/08/22 06:50:34;;;;;;;7.07;3.15;;;;;;;21.16;39.28;95520.72;5059919;28;20196;-80
2022/08/22 06:53:07;;;;;;;6.78;2.88;;;;;;;21.65;38.89;95530.53;5032307;28;20177;-79
2022/08/22 06:55:34;;;;;;;8.93;3.25;;;;;;;22.64;36.17;95533.19;5047425;28;20209;-78
2022/08/22 06:58:05;;;;;;;4.00;3.47;;;;;;;23.20;35.23;95527.53;5047203;28;20220;-78
2022/08/22 07:00:32;;;;;;;4.80;3.10;;;;;;;23.20;35.43;95524.88;5050818;28;20184;-79
2022/08/22 07:03:05;;;;;;;5.97;3.25;;;;;;;23.17;35.75;95528.81;5028176;28;20189;-78
2022/08/22 07:05:35;;;;;;;4.25;3.40;;;;;;;22.99;36.32;95531.53;5033274;28;20197;-78
2022/08/22 07:08:05;;;;;;;3.92;2.90;;;;;;;23.05;36.15;95527.94;5048892;28;20185;-78
2022/08/22 07:10:31;;;;;;;5.80;3.50;;;;;;;22.81;36.92;95531.53;5028540;28;20234;-79
2022/08/22 07:12:57;;;;;;;3.35;3.00;;;;;;;23.01;36.39;95534.75;5032388;28;20732;-78
2022/08/22 07:15:33;;;;;;;5.60;3.50;;;;;;;22.99;36.24;95536.81;5046421;28;20220;-78
2022/08/22 07:18:01;;;;;;;5.40;3.30;;;;;;;22.91;35.95;95542.44;5026084;28;20181;-78
2022/08/22 07:20:30;;;;;;;6.15;3.65;;;;;;;23.00;36.45;95534.97;5044148;28;20177;-81
2022/08/22 07:23:05;;;;;;;6.55;3.50;;;;;;;22.92;36.88;95535.28;5041824;28;20190;-79
2022/08/22 07:25:34;;;;;;;4.15;3.35;;;;;;;22.98;36.54;95535.22;5028785;28;20284;-79
2022/08/22 07:28:28;;;;;;;3.25;2.95;;;;;;;23.16;36.80;95539.63;5040298;28;20192;-79
2022/08/22 07:30:57;;;;;;;6.38;3.17;;;;;;;22.95;37.07;95534.84;4998575;28;20269;-79
2022/08/22 07:33:28;;;;;;;3.75;3.33;;;;;;;23.18;37.16;95534.91;4970510;28;20203;-79
2022/08/22 07:35:59;;;;;;;5.22;3.13;;;;;;;23.10;37.07;95535.22;4996951;28;20224;-79
2022/08/22 07:38:35;;;;;;;4.93;3.38;;;;;;;23.32;36.88;95541.63;4986611;28;20199;-79
2022/08/22 07:41:14;;;;;;;5.72;3.85;;;;;;;23.58;36.70;95542.22;4983110;28;20226;-78
2022/08/22 07:43:44;;;;;;;4.45;3.40;;;;;;;23.51;36.97;95549.50;4983164;28;20190;-78
2022/08/22 07:46:14;;;;;;;5.43;3.35;;;;;;;23.62;36.67;95548.75;4986520;28;20243;-77
2022/08/22 07:48:51;;;;;;;4.65;3.30;;;;;;;23.70;36.53;95548.41;4999240;28;20282;-79
2022/08/22 07:51:26;;;;;;;4.97;3.28;;;;;;;23.76;36.63;95539.50;4965386;28;20693;-79
2022/08/22 07:53:58;;;;;;;5.72;3.38;;;;;;;23.66;36.29;95545.38;4983917;28;20190;-79
2022/08/22 07:56:27;;;;;;;4.90;3.22;;;;;;;23.32;37.65;95549.59;4981924;28;20243;-78
2022/08/22 07:59:04;;;;;;;8.23;3.42;;;;;;;23.15;37.91;95551.28;4965695;28;20195;-77
2022/08/22 08:01:29;;;;;;;5.03;3.45;;;;;;;23.23;37.97;95548.28;4984212;28;20233;-78
2022/08/22 08:04:07;;;;;;;4.38;3.38;;;;;;;23.73;37.17;95550.59;4997648;28;20254;-79
2022/08/22 08:06:33;;;;;;;4.75;3.47;;;;;;;23.59;37.02;95546.50;4984285;28;20357;-80
2022/08/22 08:08:59;;;;;;;6.75;3.42;;;;;;;23.76;36.76;95552.78;5046132;28;20189;-79
2022/08/22 08:11:26;;;;;;;4.47;3.13;;;;;;;23.86;36.53;95558.34;5039094;28;20188;-79
2022/08/22 08:13:57;;;;;;;4.80;3.70;;;;;;;24.04;35.91;95553.94;5047579;28;20193;-79
2022/08/22 08:16:24;;;;;;;3.08;2.78;;;;;;;24.15;36.49;95551.28;5046301;28;20200;-78
2022/08/22 08:18:52;;;;;;;4.85;3.60;;;;;;;24.44;35.52;95554.84;5048842;28;20220;-80
2022/08/22 08:21:30;;;;;;;4.20;3.50;;;;;;;24.39;35.20;95551.28;5048182;28;20197;-79
2022/08/22 08:23:56;;;;;;;6.30;3.60;;;;;;;24.33;35.34;95555.69;5035033;28;20208;-79
2022/08/22 08:26:31;;;;;;;6.15;3.67;;;;;;;24.00;36.46;95551.75;5047547;28;20320;-79
2022/08/22 08:28:57;;;;;;;7.43;3.03;;;;;;;23.62;37.28;95551.41;5014951;28;20189;-78
2022/08/22 08:31:24;;;;;;;5.75;3.67;;;;;;;23.93;36.35;95553.69;5047370;28;20180;-80
2022/08/22 08:33:57;;;;;;;4.97;3.40;;;;;;;23.84;36.46;95555.09;5055890;28;20292;-79
2022/08/22 08:36:36;;;;;;;4.85;3.22;;;;;;;24.11;36.25;95554.63;5029550;28;20205;-79
2022/08/22 08:39:25;;;;;;;5.35;3.30;;;;;;;24.18;35.67;95552.66;5044213;28;20241;-79
2022/08/22 08:42:00;;;;;;;6.40;4.20;;;;;;;24.15;35.04;95545.97;5025217;28;20182;-79
2022/08/22 08:44:31;;;;;;;4.45;3.40;;;;;;;24.20;34.76;95551.38;5041468;28;20191;-79
2022/08/22 08:47:11;;;;;;;4.95;3.15;;;;;;;24.44;35.00;95549.53;5042477;28;20716;-79
2022/08/22 08:49:46;;;;;;;3.53;3.10;;;;;;;24.24;35.19;95544.59;5023919;28;20177;-79
2022/08/22 08:52:26;;;;;;;4.68;3.38;;;;;;;24.34;34.30;95548.53;5058689;28;20219;-78
2022/08/22 08:54:54;;;;;;;5.45;3.17;;;;;;;24.36;33.55;95549.09;5042414;28;20234;-79
2022/08/22 08:57:41;;;;;;;3.30;2.40;;;;;;;24.88;33.38;95543.75;5043228;28;20194;-79
2022/08/22 09:00:11;;;;;;;6.75;3.05;;;;;;;24.70;32.38;95548.19;5027098;28;20859;-78
2022/08/22 09:03:34;;;;;;;4.40;3.05;;;;;;;24.52;31.54;95546.50;5039712;28;20269;-79
2022/08/22 09:06:25;;;;;;;3.80;3.40;;;;;;;24.71;30.21;95544.50;4961552;28;20234;-78
2022/08/22 09:08:58;;;;;;;4.53;3.15;;;;;;;25.01;31.01;95546.13;4952255;28;20763;-79
2022/08/22 09:12:00;;;;;;;4.10;2.58;;;;;;;25.14;30.15;95543.19;4959037;28;20209;-78
2022/08/22 09:14:37;;;;;;;4.72;3.13;;;;;;;25.32;29.40;95547.50;4960830;28;20576;-78
2022/08/22 09:17:23;;;;;;;4.47;3.38;;;;;;;25.47;29.57;95537.13;4954034;28;20279;-78
2022/08/22 09:20:14;;;;;;;5.30;2.83;;;;;;;25.52;28.46;95549.69;4965313;28;20336;-78
2022/08/22 09:23:11;;;;;;;6.57;2.78;;;;;;;25.42;27.89;95551.13;4954467;28;20205;-79
2022/08/22 09:25:59;;;;;;;7.05;3.22;;;;;;;25.83;30.07;95545.69;4944770;28;20232;-79
2022/08/22 09:28:33;;;;;;;4.00;2.65;;;;;;;25.91;30.50;95545.28;4947247;28;20193;-79
2022/08/22 09:31:07;;;;;;;3.53;2.47;;;;;;;26.06;29.75;95548.19;4950356;28;20208;-79
2022/08/22 09:33:48;;;;;;;4.95;2.97;;;;;;;26.39;29.04;95551.84;4955926;28;20191;-79
2022/08/22 09:36:35;;;;;;;3.67;2.50;;;;;;;26.35;29.35;95554.16;5005836;28;20229;-78
2022/08/22 09:39:14;;;;;;;5.80;3.15;;;;;;;26.64;29.67;95554.00;5067036;28;20196;-78
2022/08/22 09:42:00;;;;;;;5.93;3.60;;;;;;;26.47;29.47;95548.75;5044617;28;20177;-79
2022/08/22 09:44:37;;;;;;;5.22;2.80;;;;;;;26.27;30.14;95551.94;5043129;28;20241;-78
2022/08/22 09:47:17;;;;;;;5.25;3.25;;;;;;;25.69;30.05;95553.97;5032087;28;20373;-79
2022/08/22 09:50:11;;;;;;;6.18;2.97;;;;;;;24.67;31.06;95547.88;5029283;28;20193;-78
2022/08/22 09:52:52;;;;;;;3.38;3.00;;;;;;;25.09;30.92;95553.72;5042119;28;20562;-79
2022/08/22 09:55:39;;;;;;;4.45;3.33;;;;;;;25.08;31.40;95547.59;5051930;28;20209;-79
2022/08/22 09:58:24;;;;;;;6.00;3.15;;;;;;;24.82;32.55;95546.28;5048486;28;20190;-78
2022/08/22 10:00:54;;;;;;;6.72;3.05;;;;;;;24.67;33.88;95548.69;5031408;28;20234;-78
2022/08/22 10:03:31;;;;;;;5.80;3.90;;;;;;;24.17;34.55;95554.50;5050919;28;20185;-78
2022/08/22 10:06:13;;;;;;;4.65;3.55;;;;;;;24.23;34.64;95552.78;5027990;28;20224;-77
2022/08/22 10:09:01;;;;;;;5.97;3.40;;;;;;;24.36;34.74;95554.41;5045046;28;20181;-78
2022/08/22 10:11:29;;;;;;;6.88;3.15;;;;;;;24.16;34.67;95546.78;5048744;28;20182;-78
2022/08/22 10:14:20;;;;;;;7.38;3.58;;;;;;;24.10;34.87;95553.00;5032929;28;20235;-79
2022/08/22 10:16:53;;;;;;;8.07;4.35;;;;;;;23.86;35.79;95553.03;5031632;28;20187;-79
2022/08/22 10:19:36;;;;;;;4.75;2.83;;;;;;;23.97;34.14;95551.41;5028328;28;20185;-79
2022/08/22 10:22:23;;;;;;;5.15;3.22;;;;;;;24.00;34.03;95550.94;5047596;28;20177;-79
2022/08/22 10:24:57;;;;;;;4.50;3.22;;;;;;;23.86;34.54;95546.91;5030755;28;20202;-79
2022/08/22 10:27:34;;;;;;;5.63;3.55;;;;;;;23.88;34.67;95544.84;5044668;28;20215;-78
2022/08/22 10:30:10;;;;;;;5.10;3.70;;;;;;;23.74;35.25;95538.94;5063779;28;20192;-79
2022/08/22 10:32:51;;;;;;;6.03;3.22;;;;;;;24.08;33.83;95534.69;5038667;28;20180;-79
2022/08/22 10:35:22;;;;;;;9.82;3.40;;;;;;;24.08;33.34;95536.53;5020539;28;20232;-79
2022/08/22 10:37:57;;;;;;;8.23;3.88;;;;;;;23.97;34.68;95536.31;5030113;28;20752;-79
2022/08/22 10:40:31;;;;;;;4.70;3.22;;;;;;;24.09;34.47;95535.47;5049337;28;20616;-80
2022/08/22 10:43:05;;;;;;;6.30;3.05;;;;;;;24.15;34.68;95535.38;5045183;28;20184;-79
2022/08/22 10:45:34;;;;;;;6.97;3.50;;;;;;;24.15;33.76;95537.22;5065648;28;20201;-79
2022/08/22 10:48:05;;;;;;;5.65;3.20;;;;;;;23.90;33.52;95532.97;5046267;28;20206;-79
2022/08/22 10:50:34;;;;;;;4.25;3.03;;;;;;;24.07;33.08;95534.91;5048734;28;20252;-79
2022/08/22 10:53:29;;;;;;;4.90;3.03;;;;;;;24.08;32.69;95531.22;5046095;28;20185;-79
2022/08/22 10:56:02;;;;;;;5.47;3.05;;;;;;;24.23;32.29;95526.25;5044965;28;20274;-79
2022/08/22 10:58:32;;;;;;;5.50;3.15;;;;;;;24.43;32.64;95531.19;5028053;28;20182;-79
2022/08/22 11:00:59;;;;;;;5.15;3.22;;;;;;;24.66;32.63;95535.66;5027260;28;21520;-79
2022/08/22 11:03:37;;;;;;;5.10;4.07;;;;;;;24.78;31.11;95533.75;5024704;28;20182;-79
2022/08/22 11:06:14;;;;;;;7.22;3.30;;;;;;;24.85;31.40;95526.44;5063485;28;20259;-79
2022/08/22 11:09:06;;;;;;;5.78;2.83;;;;;;;25.05;31.44;95528.69;5048468;28;20191;-79
2022/08/22 11:11:49;;;;;;;4.30;2.95;;;;;;;25.19;30.81;95529.22;5046843;28;20291;-80
2022/08/22 11:14:34;;;;;;;3.50;2.55;;;;;;;25.17;30.36;95515.34;5047084;28;20193;-79
2022/08/22 11:17:32;;;;;;;5.22;2.90;;;;;;;25.07;31.29;95522.09;5047905;28;20185;-79
2022/08/22 11:20:07;;;;;;;6.78;3.15;;;;;;;25.02;31.29;95524.69;5044549;28;20208;-80
2022/08/22 11:22:44;;;;;;;5.75;3.15;;;;;;;24.85;30.34;95518.47;5048628;28;20257;-79
2022/08/22 11:25:17;;;;;;;5.35;2.60;;;;;;;25.10;30.26;95523.47;5050269;28;20761;-77
2022/08/22 11:27:50;;;;;;;6.07;3.00;;;;;;;25.08;30.79;95518.38;5050910;28;20170;-78
2022/08/22 11:30:26;;;;;;;4.68;3.38;;;;;;;25.42;30.87;95519.22;5059296;28;20178;-80
2022/08/22 11:32:58;;;;;;;5.88;3.20;;;;;;;25.70;29.68;95512.22;5080263;28;20178;-81
2022/08/22 11:35:49;;;;;;;5.22;2.97;;;;;;;25.86;29.52;95514.09;5071892;28;20211;-81
2022/08/22 11:38:32;;;;;;;4.07;2.92;;;;;;;26.21;29.04;95510.31;5051611;28;20185;-81
2022/08/22 11:41:11;;;;;;;5.53;3.40;;;;;;;26.30;29.12;95508.84;5069579;28;20645;-81
2022/08/22 11:43:49;;;;;;;5.22;2.90;;;;;;;26.62;28.53;95506.34;5037848;28;20197;-82
2022/08/22 11:46:30;;;;;;;4.75;3.35;;;;;;;27.14;28.47;95502.38;5029411;28;20201;-82
2022/08/22 11:49:17;;;;;;;4.65;2.75;;;;;;;27.61;27.07;95507.81;5034703;28;20183;-82
2022/08/22 11:51:56;;;;;;;3.80;2.65;;;;;;;27.29;26.71;95505.16;5030939;28;20208;-82
2022/08/22 11:54:33;;;;;;;4.90;3.10;;;;;;;27.35;27.65;95496.94;5046053;28;20208;-80
2022/08/22 11:57:19;;;;;;;4.72;2.90;;;;;;;27.69;25.87;95499.38;5026502;28;20197;-81
2022/08/22 11:59:44;;;;;;;6.05;3.00;;;;;;;28.03;27.00;95491.06;5024929;28;20182;-82
2022/08/22 12:02:48;;;;;;;3.50;3.03;;;;;;;27.81;26.33;95500.00;5045273;28;20185;-82
2022/08/22 12:05:29;;;;;;;4.13;3.00;;;;;;;28.24;25.74;95498.09;5034905;28;20201;-79
2022/08/22 12:08:48;;;;;;;2.95;2.58;;;;;;;27.81;26.44;95494.66;5039310;28;20186;-77
2022/08/22 12:11:34;;;;;;;6.40;3.13;;;;;;;27.28;26.35;95493.69;5042664;28;20193;-80
2022/08/22 12:14:22;;;;;;;3.22;2.60;;;;;;;27.33;25.87;95495.59;5026175;28;20193;-81
2022/08/22 12:17:16;;;;;;;4.25;2.40;;;;;;;27.68;25.30;95503.13;5061524;28;20235;-81
2022/08/22 12:19:54;;;;;;;3.97;2.75;;;;;;;27.97;25.44;95492.88;5040984;28;20650;-81
2022/08/22 12:22:38;;;;;;;4.38;2.80;;;;;;;27.86;25.08;95494.69;5025579;28;20191;-81
2022/08/22 12:25:23;;;;;;;5.07;2.80;;;;;;;26.74;26.14;95491.00;5041927;28;20197;-81
2022/08/22 12:28:04;;;;;;;4.07;2.92;;;;;;;26.67;26.87;95486.94;5027694;28;20240;-80
2022/08/22 12:30:32;;;;;;;5.32;2.70;;;;;;;26.36;27.63;95478.56;5042342;28;20177;-81